• Join FlightAware (Why Join?)
  • Login
  • US Flag 
03:04PM EDT


 

Airport Tracker/Info


-or-


 

Live Flight TrackerFlight Track Log ✈ N885FT ✈ 07-May-2014 ✈ X61 - KVDI

Flight Track Log - Related Links

Times and Time Zones

All times are in EDT time to prevent confusion due to time zone crossing. See the N885FT flight status page for this flight to view local times or setup timezone preferences in your user account.

Time Position Orientation Groundspeed Altitude Reporting Facility
EDT Latitude Longitude Course Direction KTS MPH feet Rate Location/Type
12:39PM 28.6833 -80.8667 338° Northwest 166 191 5,500  Level Orlando TRACON
12:41PM 28.7878 -80.9144 338° Northwest 167 192 5,500  Level Jacksonville Center
12:42PM 28.8300 -80.9303 342° North 167 192 5,500  Level Jacksonville Center
12:43PM 28.8739 -80.9461 342° North 166 191 5,500  Level Jacksonville Center
12:44PM 28.9286 -80.9686 340° North 166 191 5,500  Level Jacksonville Center
12:45PM 28.9622 -80.9822 340° North 166 191 5,500  Level Jacksonville Center
12:46PM 29.0125 -81.0003 343° North 166 191 5,500  Level Jacksonville Center
12:47PM 29.0631 -81.0231 339° North 167 192 5,500  Level Jacksonville Center
12:48PM 29.1008 -81.0367 343° North 166 191 5,500  Level Jacksonville Center
12:49PM 29.1511 -81.0547 343° North 167 192 5,500  Level Jacksonville Center
12:50PM 29.1889 -81.0706 340° North 168 193 5,500  Level Jacksonville Center
12:51PM 29.2308 -81.0864 342° North 167 192 5,500  Level Jacksonville Center
12:52PM 29.2769 -81.1069 339° North 165 190 5,500  Level Jacksonville Center
12:53PM 29.3233 -81.1278 339° North 167 192 5,500  Level Jacksonville Center
12:54PM 29.3694 -81.1458 341° North 169 194 5,500  Level Jacksonville Center
12:55PM 29.4136 -81.1667 338° Northwest 169 194 5,500  Level Jacksonville Center
12:56PM 29.4575 -81.1850 340° North 170 196 5,500  Level Jacksonville Center
12:57PM 29.5100 -81.2056 341° North 171 197 5,500  Level Jacksonville Center
12:58PM 29.5458 -81.2214 339° North 171 197 5,500  Level Jacksonville Center
12:59PM 29.5878 -81.2400 339° North 170 196 5,500  Level Jacksonville Center
01:00PM 29.6381 -81.2606 340° North 169 194 5,500  Level Jacksonville Center
01:01PM 29.6758 -81.2767 340° North 171 197 5,500  Level Jacksonville Center
01:02PM 29.7178 -81.2928 342° North 171 197 5,500  Level Jacksonville Center
01:03PM 29.7619 -81.3136 338° Northwest 171 197 5,500  Level Jacksonville Center
01:04PM 29.8081 -81.3319 341° North 171 197 5,500  Level Jacksonville Center
01:05PM 29.8481 -81.3481 341° North 171 197 5,500  Level Jacksonville Center
01:06PM 29.8900 -81.3664 339° North 171 197 5,500  Level Jacksonville Center
01:07PM 29.9342 -81.3875 338° Northwest 169 194 5,500  Level Jacksonville Center
01:08PM 29.9822 -81.4058 342° North 173 199 5,500  Level Jacksonville Center
01:09PM 30.0283 -81.4267 339° North 171 197 5,500  Level Jacksonville Center
01:10PM 30.0703 -81.4453 339° North 170 196 5,500  Level Jacksonville Center
01:11PM 30.1125 -81.4661 337° Northwest 170 196 5,500  Level Jacksonville Center
01:12PM 30.1586 -81.4825 343° North 168 193 5,500  Level Jacksonville Center
01:13PM 30.2025 -81.5033 338° Northwest 172 198 5,500  Level Jacksonville Center
01:14PM 30.2508 -81.5219 342° North 171 197 5,500  Level Jacksonville Center
01:15PM 30.2969 -81.5406 341° North 170 196 5,500  Level Jacksonville Center
01:16PM 30.3411 -81.5617 338° Northwest 169 194 5,500  Level Jacksonville Center
01:17PM 30.3850 -81.5803 340° North 169 194 5,500  Level Jacksonville Center
01:18PM 30.4311 -81.5989 341° North 169 194 5,500  Level Jacksonville Center
01:19PM 30.4772 -81.6200 338° Northwest 171 197 5,500  Level Jacksonville Center
01:20PM 30.5233 -81.6411 338° Northwest 167 192 5,500  Level Jacksonville Center
01:21PM 30.5675 -81.6597 340° North 168 193 5,500  Level Jacksonville Center
01:22PM 30.6114 -81.6761 342° North 167 192 5,500  Level Jacksonville Center
01:23PM 30.6533 -81.6972 337° Northwest 168 193 5,500 -60 Level Jacksonville Center
01:24PM 30.6869 -81.7114 340° North 169 194 5,400  Descending Jacksonville Center
01:24PM 30.7036 -81.7183 340° North 170 196 5,500 60 Climbing Jacksonville Center
01:25PM 30.7289 -81.7303 338° Northwest 179 206 5,500  Level Jacksonville Center
01:26PM 30.7750 -81.7514 339° North 179 206 5,500  Level Jacksonville Center
01:27PM 30.8169 -81.7703 339° North 167 192 5,500  Level Jacksonville Center
01:28PM 30.8608 -81.7889 340° North 167 192 5,500  Level Jacksonville Center
01:29PM 30.9050 -81.8056 342° North 172 198 5,500  Level Jacksonville Center
01:30PM 30.9489 -81.8267 338° Northwest 172 198 5,500  Level Jacksonville Center
01:31PM 30.9931 -81.8456 340° North 172 198 5,500  Level Jacksonville Center
01:32PM 31.0350 -81.8644 339° North 172 198 5,500  Level Jacksonville Center
01:33PM 31.0789 -81.8858 337° Northwest 172 198 5,500  Level Jacksonville Center
01:34PM 31.1208 -81.9025 341° North 167 192 5,500  Level Jacksonville Center
01:35PM 31.1606 -81.9214 338° Northwest 167 192 5,500  Level Jacksonville Center
01:36PM 31.2025 -81.9356 344° North 162 186 5,500  Level Jacksonville Center
01:37PM 31.2464 -81.9594 335° Northwest 157 181 5,500  Level Jacksonville Center
01:38PM 31.2883 -81.9736 344° North 158 182 5,500  Level Jacksonville Center
01:39PM 31.3303 -81.9928 339° North 158 182 5,500  Level Jacksonville Center
01:40PM 31.3681 -82.0069 342° North 153 176 5,500  Level Jacksonville Center
01:41PM 31.4078 -82.0261 338° Northwest 153 176 5,500  Level Jacksonville Center
01:42PM 31.4539 -82.0500 336° Northwest 153 176 5,500  Level Jacksonville Center
01:43PM 31.4958 -82.0667 341° North 153 176 5,500  Level Jacksonville Center
01:44PM 31.5375 -82.0833 341° North 153 176 5,500  Level Jacksonville Center
01:45PM 31.5775 -82.1000 340° North 153 176 5,500  Level Jacksonville Center
01:46PM 31.6233 -82.1192 340° North 153 176 5,500  Level Jacksonville Center
01:47PM 31.6633 -82.1433 333° Northwest 158 182 5,500  Level Jacksonville Center
01:48PM 31.7050 -82.1600 341° North 152 175 5,500 -180 Level Jacksonville Center
01:49PM 31.7447 -82.1719 346° North 152 175 5,200 -360 Descending Jacksonville Center
01:50PM 31.7847 -82.1911 338° Northwest 157 181 4,800 -540 Descending Jacksonville Center
01:51PM 31.8286 -82.2128 337° Northwest 151 174 4,200 -660 Descending Jacksonville Center
01:52PM 31.8706 -82.2319 339° North 151 174 3,500 -660 Descending Jacksonville Center
01:53PM 31.9103 -82.2489 340° North 156 180 2,900 -660 Descending Jacksonville Center
01:54PM 31.9478 -82.2658 339° North 156 180 2,200 -360 Descending Jacksonville Center
01:55PM 31.9833 -82.2803 341° North 149 171 2,200  Level Jacksonville Center